Time;durP1;ratioP1;P1;durP2;ratioP2;P2;SDS_P1;SDS_P2;PMS_P1;PMS_P2;Temp;Humidity;BMP_temperature;BMP_pressure;BME280_temperature;BME280_humidity;BME280_pressure;Samples;Min_cycle;Max_cycle;Signal;HPM_P1;HPM_P2
2024/04/03 00:00:35;;;;;;;8.37;3.30;;;9.20;99.90;;;;;;484319;245;28587;-72
2024/04/03 00:02:36;;;;;;;7.10;3.40;;;9.20;99.90;;;;;;484321;245;28486;-73
2024/04/03 00:04:38;;;;;;;5.67;2.43;;;9.20;99.90;;;;;;484345;245;28450;-72
2024/04/03 00:06:39;;;;;;;6.57;1.87;;;9.20;99.90;;;;;;484344;245;28581;-72
2024/04/03 00:08:40;;;;;;;3.47;1.70;;;9.10;99.90;;;;;;484304;245;28355;-72
2024/04/03 00:10:41;;;;;;;3.30;1.93;;;9.20;99.90;;;;;;484329;245;28069;-72
2024/04/03 00:12:42;;;;;;;2.77;1.50;;;9.20;99.90;;;;;;484336;242;28115;-72
2024/04/03 00:14:44;;;;;;;5.60;1.67;;;9.20;99.90;;;;;;484203;245;27914;-72
2024/04/03 00:16:45;;;;;;;2.03;1.80;;;9.30;99.90;;;;;;484329;245;28041;-72
2024/04/03 00:18:46;;;;;;;6.67;1.57;;;9.30;99.90;;;;;;484314;245;27933;-72
2024/04/03 00:20:47;;;;;;;5.00;1.80;;;9.40;99.90;;;;;;484341;245;27962;-73
2024/04/03 00:22:49;;;;;;;3.00;1.83;;;9.40;99.90;;;;;;484348;245;28090;-73
2024/04/03 00:24:50;;;;;;;3.90;1.77;;;9.40;99.90;;;;;;484321;245;27927;-72
2024/04/03 00:26:51;;;;;;;5.80;1.83;;;9.30;99.90;;;;;;484314;245;27750;-72
2024/04/03 00:28:52;;;;;;;2.43;1.40;;;9.30;99.90;;;;;;484317;245;28057;-73
2024/04/03 00:30:54;;;;;;;4.80;1.80;;;9.20;99.90;;;;;;484324;245;27964;-72
2024/04/03 00:32:55;;;;;;;5.70;2.00;;;9.10;99.90;;;;;;484352;245;28005;-72
2024/04/03 00:34:56;;;;;;;3.60;1.93;;;9.10;99.90;;;;;;484360;245;27591;-72
2024/04/03 00:36:57;;;;;;;1.17;1.10;;;9.00;99.90;;;;;;484324;245;27879;-72
2024/04/03 00:38:59;;;;;;;2.33;1.43;;;9.00;99.90;;;;;;484380;245;28482;-73
2024/04/03 00:41:00;;;;;;;4.03;1.50;;;8.90;99.90;;;;;;484360;245;28665;-72
2024/04/03 00:43:01;;;;;;;2.53;1.40;;;9.00;99.90;;;;;;484320;245;28466;-71
2024/04/03 00:45:02;;;;;;;6.30;1.67;;;8.90;99.90;;;;;;484324;245;28541;-72
2024/04/03 00:47:04;;;;;;;4.80;1.30;;;8.90;99.90;;;;;;484330;245;28535;-72
2024/04/03 00:49:05;;;;;;;5.50;1.63;;;8.90;99.90;;;;;;484369;245;28346;-75
2024/04/03 00:51:06;;;;;;;2.37;1.40;;;8.90;99.90;;;;;;484356;245;27940;-72
2024/04/03 00:53:07;;;;;;;4.30;1.40;;;8.90;99.90;;;;;;484339;245;28149;-72
2024/04/03 00:55:09;;;;;;;3.63;1.40;;;8.90;99.90;;;;;;484335;245;28052;-72
2024/04/03 00:57:10;;;;;;;2.70;1.40;;;8.90;99.90;;;;;;484365;245;28038;-72
2024/04/03 00:59:12;;;;;;;4.23;1.93;;;8.90;99.90;;;;;;484355;245;27650;-72
2024/04/03 01:01:12;;;;;;;3.07;1.57;;;8.80;99.90;;;;;;484321;245;28008;-72
2024/04/03 01:03:14;;;;;;;3.37;1.60;;;8.90;99.90;;;;;;484338;245;28074;-72
2024/04/03 01:05:15;;;;;;;1.40;1.30;;;8.90;99.90;;;;;;484329;245;28123;-72
2024/04/03 01:07:16;;;;;;;4.80;1.83;;;8.90;99.90;;;;;;484359;245;28060;-72
2024/04/03 01:09:17;;;;;;;4.20;1.60;;;8.90;99.90;;;;;;484344;245;27852;-72
2024/04/03 01:11:19;;;;;;;5.10;1.50;;;8.90;99.90;;;;;;484351;245;27603;-72
2024/04/03 01:13:20;;;;;;;2.97;1.70;;;8.90;99.90;;;;;;484320;245;27982;-72
2024/04/03 01:15:21;;;;;;;3.40;1.70;;;8.90;99.90;;;;;;484358;245;28098;-73
2024/04/03 01:17:22;;;;;;;3.00;1.57;;;8.90;99.90;;;;;;484352;245;27619;-72
2024/04/03 01:19:24;;;;;;;2.40;1.20;;;8.90;99.90;;;;;;484364;245;28426;-74
2024/04/03 01:21:25;;;;;;;4.00;1.60;;;8.90;99.90;;;;;;484325;245;28409;-72
2024/04/03 01:23:26;;;;;;;1.97;1.50;;;8.90;99.90;;;;;;484348;245;28237;-72
2024/04/03 01:25:27;;;;;;;2.87;1.30;;;8.80;99.90;;;;;;484332;245;28531;-74
2024/04/03 01:27:29;;;;;;;8.40;1.80;;;8.90;99.90;;;;;;484346;245;28365;-72
2024/04/03 01:29:30;;;;;;;2.53;1.30;;;8.80;99.90;;;;;;484309;245;28063;-72
2024/04/03 01:31:31;;;;;;;2.70;1.30;;;8.80;99.90;;;;;;484333;245;27952;-72
2024/04/03 01:33:32;;;;;;;1.73;1.43;;;8.80;99.90;;;;;;484342;245;28062;-72
2024/04/03 01:35:34;;;;;;;3.13;1.77;;;8.90;99.90;;;;;;484360;245;27878;-72
2024/04/03 01:37:35;;;;;;;2.67;1.30;;;8.90;99.90;;;;;;484325;245;27958;-72
2024/04/03 01:39:36;;;;;;;2.97;1.60;;;8.90;99.90;;;;;;484326;245;27969;-73
2024/04/03 01:41:37;;;;;;;1.67;1.57;;;8.90;99.90;;;;;;484329;245;28005;-72
2024/04/03 01:43:39;;;;;;;5.77;1.47;;;9.00;99.90;;;;;;484359;245;27828;-72
2024/04/03 01:45:40;;;;;;;6.10;1.90;;;8.90;99.90;;;;;;484348;245;27862;-73
2024/04/03 01:47:41;;;;;;;3.13;1.60;;;9.00;99.90;;;;;;484362;245;27942;-71
2024/04/03 01:49:42;;;;;;;2.73;1.40;;;9.00;99.90;;;;;;484355;245;28004;-72
2024/04/03 01:51:44;;;;;;;2.47;1.20;;;9.00;99.90;;;;;;484365;245;27890;-73
2024/04/03 01:53:45;;;;;;;3.53;1.67;;;9.00;99.90;;;;;;484348;245;28071;-72
2024/04/03 01:55:46;;;;;;;2.40;1.20;;;9.00;99.90;;;;;;484331;245;27916;-72
2024/04/03 01:57:47;;;;;;;3.47;1.57;;;9.00;99.90;;;;;;484342;245;27704;-72
2024/04/03 01:59:49;;;;;;;3.13;1.33;;;9.00;99.90;;;;;;484319;245;28010;-72
2024/04/03 02:01:50;;;;;;;2.23;1.10;;;9.00;99.90;;;;;;484346;245;28109;-71
2024/04/03 02:03:51;;;;;;;1.43;1.30;;;9.10;99.90;;;;;;484338;245;28107;-72
2024/04/03 02:05:53;;;;;;;2.20;1.33;;;9.10;99.90;;;;;;484336;245;27752;-73
2024/04/03 02:07:54;;;;;;;3.03;1.40;;;9.10;99.90;;;;;;484336;245;27939;-72
2024/04/03 02:09:55;;;;;;;2.00;1.40;;;9.00;99.90;;;;;;484353;245;27977;-72
2024/04/03 02:11:56;;;;;;;5.53;1.80;;;9.10;99.90;;;;;;484357;245;28098;-73
2024/04/03 02:13:58;;;;;;;4.00;1.73;;;9.10;99.90;;;;;;484324;245;28381;-73
2024/04/03 02:15:59;;;;;;;1.80;1.30;;;9.10;99.90;;;;;;484327;245;28096;-72
2024/04/03 02:18:00;;;;;;;3.87;1.23;;;9.10;99.90;;;;;;484334;245;29173;-72
2024/04/03 02:20:01;;;;;;;3.63;1.70;;;9.10;99.90;;;;;;484354;245;28413;-72
2024/04/03 02:22:02;;;;;;;6.43;1.70;;;9.20;99.90;;;;;;484334;245;29110;-72
2024/04/03 02:24:04;;;;;;;2.90;1.40;;;9.10;99.90;;;;;;484336;245;28008;-72
2024/04/03 02:26:05;;;;;;;1.90;1.50;;;9.20;99.90;;;;;;484273;245;27980;-73
2024/04/03 02:28:06;;;;;;;2.13;1.50;;;9.20;99.90;;;;;;484367;245;27935;-73
2024/04/03 02:30:07;;;;;;;3.23;1.40;;;9.30;99.90;;;;;;484335;245;27890;-73
2024/04/03 02:32:09;;;;;;;2.87;1.20;;;9.30;99.90;;;;;;484335;245;27910;-73
2024/04/03 02:34:10;;;;;;;5.47;1.30;;;9.30;99.90;;;;;;484357;245;27880;-73
2024/04/03 02:36:12;;;;;;;2.57;1.43;;;9.30;99.90;;;;;;484331;245;27966;-72
2024/04/03 02:38:12;;;;;;;6.17;1.70;;;9.30;99.90;;;;;;484292;245;28078;-74
2024/04/03 02:40:14;;;;;;;3.60;1.40;;;9.30;99.90;;;;;;484352;245;27861;-72
2024/04/03 02:42:15;;;;;;;5.10;1.63;;;9.30;99.90;;;;;;484308;245;27979;-73
2024/04/03 02:44:17;;;;;;;3.43;1.60;;;9.30;99.90;;;;;;484299;245;27813;-72
2024/04/03 02:46:17;;;;;;;2.77;1.40;;;9.30;99.90;;;;;;484338;245;28080;-73
2024/04/03 02:48:19;;;;;;;2.30;1.30;;;9.30;99.90;;;;;;484378;245;28113;-73
2024/04/03 02:50:20;;;;;;;2.30;1.33;;;9.30;99.90;;;;;;484335;245;27796;-73
2024/04/03 02:52:21;;;;;;;2.13;1.47;;;9.30;99.90;;;;;;484312;245;28579;-72
2024/04/03 02:54:22;;;;;;;2.53;1.33;;;9.30;99.90;;;;;;484278;245;29453;-72
2024/04/03 02:56:24;;;;;;;4.20;1.50;;;9.30;99.90;;;;;;484332;245;28457;-72
2024/04/03 02:58:25;;;;;;;1.40;1.13;;;9.30;99.90;;;;;;484319;245;28635;-72
2024/04/03 03:00:26;;;;;;;2.70;1.43;;;9.30;99.90;;;;;;484347;245;28435;-72
2024/04/03 03:02:27;;;;;;;2.30;1.47;;;9.30;99.90;;;;;;484331;245;27993;-73
2024/04/03 03:04:29;;;;;;;1.80;1.20;;;9.20;99.90;;;;;;484344;245;27985;-72
2024/04/03 03:06:30;;;;;;;6.17;1.93;;;9.20;99.90;;;;;;484364;245;28033;-72
2024/04/03 03:08:31;;;;;;;3.20;1.77;;;9.20;99.90;;;;;;484347;245;28092;-73
2024/04/03 03:10:32;;;;;;;3.40;1.37;;;9.20;99.90;;;;;;484338;245;28045;-72
2024/04/03 03:12:34;;;;;;;1.97;1.27;;;9.10;99.90;;;;;;484298;245;27998;-72
2024/04/03 03:14:35;;;;;;;1.80;1.20;;;9.10;99.90;;;;;;484362;245;28022;-74
2024/04/03 03:16:36;;;;;;;2.40;1.60;;;9.10;99.90;;;;;;484348;245;27993;-72
2024/04/03 03:18:37;;;;;;;1.87;1.30;;;9.10;99.90;;;;;;484332;245;27982;-72
2024/04/03 03:20:39;;;;;;;1.23;1.13;;;9.10;99.90;;;;;;484339;245;27942;-72
2024/04/03 03:22:40;;;;;;;1.97;1.40;;;9.10;99.90;;;;;;484369;245;27949;-72
2024/04/03 03:24:41;;;;;;;4.70;1.67;;;9.10;99.90;;;;;;484374;245;27999;-72
2024/04/03 03:26:43;;;;;;;1.80;1.10;;;9.00;99.90;;;;;;484341;245;28132;-72
2024/04/03 03:28:44;;;;;;;3.20;1.63;;;9.00;99.90;;;;;;484337;245;28009;-72
2024/04/03 03:30:45;;;;;;;2.87;1.40;;;9.10;99.90;;;;;;484365;245;27983;-72
2024/04/03 03:32:46;;;;;;;4.40;1.23;;;9.10;99.90;;;;;;484354;242;28113;-72
2024/04/03 03:34:48;;;;;;;3.60;1.23;;;9.10;99.90;;;;;;484355;245;28017;-72
2024/04/03 03:36:49;;;;;;;3.27;1.40;;;9.10;99.90;;;;;;484342;245;27949;-73
2024/04/03 03:38:50;;;;;;;1.40;1.30;;;9.10;99.90;;;;;;484333;245;28097;-72
2024/04/03 03:40:54;;;;;;;3.60;1.20;;;9.10;99.90;;;;;;484366;245;28485;-74
2024/04/03 03:42:56;;;;;;;3.00;1.30;;;9.10;99.90;;;;;;484373;245;28119;-73
2024/04/03 03:44:57;;;;;;;2.80;1.40;;;9.20;99.90;;;;;;484356;245;27698;-72
2024/04/03 03:46:58;;;;;;;1.30;1.20;;;9.20;99.90;;;;;;484362;245;27506;-73
2024/04/03 03:53:38;;;;;;;1.93;1.60;;;9.20;99.90;;;;;;484349;245;27987;-72
2024/04/03 03:55:40;;;;;;;1.67;1.27;;;9.20;99.90;;;;;;484364;245;27739;-73
2024/04/03 03:57:41;;;;;;;3.37;1.50;;;9.20;99.90;;;;;;484325;245;27800;-72
2024/04/03 03:59:42;;;;;;;1.90;1.30;;;9.20;99.90;;;;;;484319;245;27746;-71
2024/04/03 04:01:43;;;;;;;2.50;1.20;;;9.20;99.90;;;;;;484350;245;27997;-71
2024/04/03 04:03:45;;;;;;;3.13;1.40;;;9.20;99.90;;;;;;484356;245;28042;-72
2024/04/03 04:05:46;;;;;;;1.43;1.33;;;9.20;99.90;;;;;;484326;245;27863;-72
2024/04/03 04:07:47;;;;;;;7.67;1.50;;;9.20;99.90;;;;;;484350;245;28511;-72
2024/04/03 04:09:48;;;;;;;2.83;1.63;;;9.20;99.90;;;;;;484282;245;28328;-71
2024/04/03 04:11:50;;;;;;;2.17;1.23;;;9.20;99.90;;;;;;484285;245;28622;-75
2024/04/03 04:13:51;;;;;;;1.50;1.40;;;9.30;99.90;;;;;;484276;245;28408;-71
2024/04/03 04:15:52;;;;;;;1.50;1.20;;;9.30;99.90;;;;;;484246;245;28209;-72
2024/04/03 04:17:53;;;;;;;3.47;1.53;;;9.30;99.90;;;;;;484247;245;28074;-71
2024/04/03 04:19:55;;;;;;;1.60;1.43;;;9.30;99.90;;;;;;484277;245;27991;-71
2024/04/03 04:21:56;;;;;;;2.67;1.33;;;9.30;99.90;;;;;;484267;245;27987;-72
2024/04/03 04:23:57;;;;;;;2.30;1.60;;;9.30;99.90;;;;;;484303;245;28021;-72
2024/04/03 04:26:02;;;;;;;2.87;1.47;;;9.30;99.90;;;;;;484273;245;27956;-72
2024/04/03 04:28:00;;;;;;;2.30;1.30;;;9.40;99.90;;;;;;484082;245;28154;-73
2024/04/03 04:30:01;;;;;;;2.30;1.20;;;9.40;99.90;;;;;;484333;245;27988;-73
2024/04/03 04:32:02;;;;;;;2.80;1.30;;;9.50;99.90;;;;;;484350;245;28118;-73
2024/04/03 04:34:03;;;;;;;3.10;1.53;;;9.60;99.90;;;;;;484352;245;27965;-72
2024/04/03 04:36:05;;;;;;;2.13;1.20;;;9.70;99.90;;;;;;484293;245;27976;-72
2024/04/03 04:38:06;;;;;;;3.53;1.33;;;9.70;99.90;;;;;;484306;245;27949;-72
2024/04/03 04:40:08;;;;;;;5.30;1.40;;;9.70;99.90;;;;;;484327;245;28148;-72
2024/04/03 04:42:10;;;;;;;1.30;1.20;;;9.70;99.90;;;;;;484328;245;28054;-73
2024/04/03 04:44:10;;;;;;;4.23;2.27;;;9.70;99.90;;;;;;484204;245;28093;-73
2024/04/03 04:46:12;;;;;;;8.13;4.53;;;9.70;99.90;;;;;;484287;245;27750;-72
2024/04/03 04:48:12;;;;;;;6.90;2.50;;;9.70;99.90;;;;;;484313;245;28601;-75
2024/04/03 04:50:13;;;;;;;5.40;1.63;;;9.70;99.90;;;;;;484353;245;28373;-72
2024/04/03 04:52:15;;;;;;;2.73;1.60;;;9.70;99.90;;;;;;484317;245;28587;-72
2024/04/03 04:54:16;;;;;;;2.83;1.37;;;9.70;99.90;;;;;;484350;245;28373;-71
2024/04/03 04:56:17;;;;;;;1.57;1.47;;;9.70;99.90;;;;;;484287;245;28537;-72
2024/04/03 04:58:18;;;;;;;2.00;1.80;;;9.60;99.90;;;;;;484352;245;28209;-73
2024/04/03 05:00:20;;;;;;;7.20;1.50;;;9.60;99.90;;;;;;484354;245;27697;-72
2024/04/03 05:02:21;;;;;;;1.53;1.20;;;9.50;99.90;;;;;;484314;245;27890;-72
2024/04/03 05:04:22;;;;;;;6.93;2.00;;;9.50;99.90;;;;;;484312;245;27882;-72
2024/04/03 05:06:23;;;;;;;4.33;1.63;;;9.50;99.90;;;;;;484320;245;28222;-72
2024/04/03 05:08:25;;;;;;;2.50;1.50;;;9.50;99.90;;;;;;484346;245;28014;-73
2024/04/03 05:10:26;;;;;;;2.70;1.40;;;9.50;99.90;;;;;;484316;245;27703;-72
2024/04/03 05:12:27;;;;;;;2.10;1.40;;;9.40;99.90;;;;;;484291;245;28081;-72
2024/04/03 05:14:28;;;;;;;2.00;1.50;;;9.50;99.90;;;;;;484307;245;28077;-72
2024/04/03 05:16:30;;;;;;;2.17;1.17;;;9.40;99.90;;;;;;484358;245;27988;-72
2024/04/03 05:18:31;;;;;;;4.20;1.80;;;9.40;99.90;;;;;;484344;245;28221;-72
2024/04/03 05:20:32;;;;;;;3.47;1.87;;;9.40;99.90;;;;;;484352;245;27816;-72
2024/04/03 05:22:33;;;;;;;2.10;1.10;;;9.40;99.90;;;;;;484345;245;27788;-72
2024/04/03 05:24:35;;;;;;;2.47;1.60;;;9.40;99.90;;;;;;484327;245;28059;-74
2024/04/03 05:26:36;;;;;;;1.73;1.40;;;9.40;99.90;;;;;;484345;245;28498;-72
2024/04/03 05:28:38;;;;;;;2.27;1.47;;;9.40;99.90;;;;;;484363;245;28341;-72
2024/04/03 05:30:38;;;;;;;2.10;1.40;;;9.40;99.90;;;;;;484283;245;28358;-72
2024/04/03 05:32:40;;;;;;;4.33;1.67;;;9.40;99.90;;;;;;484324;245;28531;-72
2024/04/03 05:34:41;;;;;;;2.97;1.40;;;9.40;99.90;;;;;;484362;245;28670;-73
2024/04/03 05:36:42;;;;;;;2.53;1.33;;;9.40;99.90;;;;;;484323;245;27972;-73
2024/04/03 05:38:43;;;;;;;10.23;1.70;;;9.40;99.90;;;;;;484338;245;27966;-73
2024/04/03 05:40:45;;;;;;;1.60;1.30;;;9.40;99.90;;;;;;484326;245;28040;-73
2024/04/03 05:42:46;;;;;;;2.27;1.30;;;9.40;99.90;;;;;;484334;245;28094;-72
2024/04/03 05:44:47;;;;;;;3.23;1.70;;;9.40;99.90;;;;;;484362;245;27627;-72
2024/04/03 05:46:48;;;;;;;2.00;1.40;;;9.40;99.90;;;;;;484299;245;27805;-72
2024/04/03 05:48:50;;;;;;;2.90;1.60;;;9.40;99.90;;;;;;484317;245;27969;-73
2024/04/03 05:50:51;;;;;;;3.37;1.67;;;9.40;99.90;;;;;;484286;245;28030;-74
2024/04/03 05:52:53;;;;;;;1.37;1.00;;;9.40;99.90;;;;;;484339;245;27953;-72
2024/04/03 05:54:53;;;;;;;5.23;1.70;;;9.40;99.90;;;;;;484296;245;27763;-72
2024/04/03 05:56:55;;;;;;;1.90;1.50;;;9.40;99.90;;;;;;484332;245;27868;-73
2024/04/03 05:58:56;;;;;;;1.93;1.20;;;9.30;99.90;;;;;;484324;245;27511;-72
2024/04/03 06:00:58;;;;;;;2.30;1.30;;;9.30;99.90;;;;;;484364;245;27645;-73
2024/04/03 06:02:58;;;;;;;4.00;1.70;;;9.30;99.90;;;;;;484323;245;28161;-72
2024/04/03 06:05:00;;;;;;;3.57;1.53;;;9.40;99.90;;;;;;484363;245;28424;-72
2024/04/03 06:07:02;;;;;;;2.30;1.20;;;9.40;99.90;;;;;;484325;245;28023;-72
2024/04/03 06:09:04;;;;;;;3.07;1.40;;;9.40;99.90;;;;;;484287;245;28513;-71
2024/04/03 06:11:03;;;;;;;2.70;1.30;;;9.40;99.90;;;;;;484255;245;28337;-73
2024/04/03 06:13:05;;;;;;;1.60;1.27;;;9.40;99.90;;;;;;484340;245;28487;-72
2024/04/03 06:15:06;;;;;;;2.60;1.70;;;9.50;99.90;;;;;;484310;245;28142;-73
2024/04/03 06:17:07;;;;;;;2.20;1.80;;;9.50;99.90;;;;;;484320;245;27843;-71
2024/04/03 06:19:09;;;;;;;2.30;1.40;;;9.50;99.90;;;;;;484355;245;27951;-71
2024/04/03 06:21:10;;;;;;;4.33;1.57;;;9.40;99.90;;;;;;484322;243;27862;-73
2024/04/03 06:23:11;;;;;;;1.50;1.40;;;9.30;99.90;;;;;;484348;245;28150;-72
2024/04/03 06:25:12;;;;;;;4.00;2.23;;;9.30;99.90;;;;;;484331;245;27955;-72
2024/04/03 06:27:13;;;;;;;2.07;1.50;;;9.30;99.90;;;;;;484325;245;27513;-72
2024/04/03 06:29:18;;;;;;;2.50;1.50;;;9.20;99.90;;;;;;484365;245;27981;-72
2024/04/03 06:31:16;;;;;;;4.40;1.40;;;9.20;99.90;;;;;;484106;245;28068;-72
2024/04/03 06:33:17;;;;;;;2.90;1.67;;;9.10;99.90;;;;;;484327;245;27953;-72
2024/04/03 06:35:18;;;;;;;1.87;1.47;;;9.10;99.90;;;;;;484332;245;28010;-73
2024/04/03 06:37:20;;;;;;;1.60;1.50;;;9.10;99.90;;;;;;484350;245;28214;-74
2024/04/03 06:39:21;;;;;;;1.80;1.40;;;9.10;99.90;;;;;;484333;245;27952;-72
2024/04/03 06:41:22;;;;;;;2.93;1.43;;;9.20;99.90;;;;;;484359;245;27546;-72
2024/04/03 06:43:24;;;;;;;1.80;1.30;;;9.20;99.90;;;;;;484328;245;27911;-72
2024/04/03 06:45:25;;;;;;;2.17;1.47;;;9.20;99.90;;;;;;484321;245;28509;-72
2024/04/03 06:47:27;;;;;;;1.40;1.30;;;9.20;99.90;;;;;;484357;245;28221;-73
2024/04/03 06:49:29;;;;;;;4.13;1.50;;;9.10;99.90;;;;;;484252;245;28399;-72
2024/04/03 06:51:28;;;;;;;1.90;1.30;;;9.20;99.90;;;;;;484234;245;28467;-74
2024/04/03 06:53:30;;;;;;;2.43;1.80;;;9.20;99.90;;;;;;484289;245;27932;-72
2024/04/03 06:55:31;;;;;;;1.70;1.50;;;9.30;99.90;;;;;;484344;245;27930;-73
2024/04/03 06:57:32;;;;;;;2.20;1.20;;;9.30;99.90;;;;;;484336;245;27608;-73
2024/04/03 06:59:33;;;;;;;3.30;1.60;;;9.30;99.90;;;;;;484342;245;28032;-73
2024/04/03 07:01:35;;;;;;;5.03;2.17;;;9.40;99.90;;;;;;484287;245;27856;-73
2024/04/03 07:03:36;;;;;;;1.80;1.60;;;9.40;99.90;;;;;;484354;245;28180;-72
2024/04/03 07:05:39;;;;;;;3.13;1.50;;;9.30;99.90;;;;;;484355;245;28014;-72
2024/04/03 07:07:38;;;;;;;3.57;1.40;;;9.40;99.90;;;;;;484203;245;27876;-73
2024/04/03 07:09:40;;;;;;;1.43;1.30;;;9.50;99.90;;;;;;484339;245;27983;-72
2024/04/03 07:11:41;;;;;;;2.20;1.70;;;9.60;99.90;;;;;;484341;245;28124;-72
2024/04/03 07:13:42;;;;;;;2.50;1.73;;;9.60;99.90;;;;;;484349;245;28315;-72
2024/04/03 07:15:43;;;;;;;1.77;1.63;;;9.50;99.90;;;;;;484364;245;27820;-72
2024/04/03 07:17:45;;;;;;;3.17;1.40;;;9.60;99.90;;;;;;484340;245;28345;-72
2024/04/03 07:19:46;;;;;;;1.40;1.30;;;9.70;99.90;;;;;;484284;245;28075;-72
2024/04/03 07:21:47;;;;;;;3.30;1.53;;;9.80;99.90;;;;;;484279;245;28068;-72
2024/04/03 07:23:48;;;;;;;2.97;1.50;;;9.80;99.90;;;;;;484337;245;29480;-73
2024/04/03 07:25:50;;;;;;;1.63;1.53;;;9.80;99.90;;;;;;484272;245;28411;-72
2024/04/03 07:27:51;;;;;;;1.73;1.50;;;9.80;99.90;;;;;;484302;245;28449;-72
2024/04/03 07:29:52;;;;;;;2.30;1.47;;;10.00;99.90;;;;;;484298;245;28298;-72
2024/04/03 07:31:53;;;;;;;4.17;2.10;;;10.00;99.90;;;;;;484317;245;28497;-72
2024/04/03 07:33:55;;;;;;;2.30;1.40;;;9.90;99.90;;;;;;484337;245;28216;-73
2024/04/03 07:35:56;;;;;;;1.63;1.20;;;10.00;99.90;;;;;;484331;245;28065;-72
2024/04/03 07:37:57;;;;;;;1.47;1.37;;;10.00;99.90;;;;;;484342;245;27964;-73
2024/04/03 07:39:58;;;;;;;1.80;1.33;;;10.10;99.90;;;;;;484332;245;28121;-72
2024/04/03 07:42:00;;;;;;;1.63;1.50;;;10.20;99.90;;;;;;484339;245;27956;-73
2024/04/03 07:44:02;;;;;;;4.23;1.40;;;10.10;99.90;;;;;;484345;245;28094;-72
2024/04/03 07:46:03;;;;;;;1.40;1.30;;;10.00;99.90;;;;;;484275;245;28041;-72
2024/04/03 07:48:03;;;;;;;3.33;1.70;;;10.10;99.90;;;;;;484257;245;28223;-73
2024/04/03 07:50:08;;;;;;;1.60;1.47;;;10.00;99.90;;;;;;484358;245;28069;-75
2024/04/03 07:52:09;;;;;;;3.40;1.93;;;9.90;99.90;;;;;;484339;245;28821;-73
2024/04/03 07:54:10;;;;;;;2.13;1.50;;;9.90;99.90;;;;;;484307;245;28075;-73
2024/04/03 07:56:12;;;;;;;1.60;1.17;;;9.80;99.90;;;;;;484324;245;27852;-72
2024/04/03 07:58:13;;;;;;;2.70;1.60;;;9.70;99.90;;;;;;484343;245;28089;-73
2024/04/03 08:00:14;;;;;;;4.37;1.70;;;9.70;99.90;;;;;;484342;245;27947;-72
2024/04/03 08:02:15;;;;;;;1.37;1.27;;;10.00;99.90;;;;;;484332;245;27995;-73
2024/04/03 08:04:16;;;;;;;5.33;1.33;;;10.30;99.90;;;;;;484314;245;28021;-73
2024/04/03 08:06:18;;;;;;;1.47;1.23;;;10.50;99.90;;;;;;484289;245;28044;-74
2024/04/03 08:08:19;;;;;;;2.03;1.30;;;10.80;99.90;;;;;;484280;245;28240;-73
2024/04/03 08:10:20;;;;;;;1.90;1.37;;;11.00;99.90;;;;;;484323;245;28071;-73
2024/04/03 08:12:21;;;;;;;2.03;1.37;;;10.90;99.90;;;;;;484319;245;28510;-74
2024/04/03 08:14:23;;;;;;;2.67;1.30;;;11.10;99.90;;;;;;484312;245;28256;-74
2024/04/03 08:16:24;;;;;;;1.40;1.30;;;11.10;99.90;;;;;;484327;245;28844;-72
2024/04/03 08:18:25;;;;;;;1.83;1.50;;;11.20;99.90;;;;;;484320;245;28715;-74
2024/04/03 08:20:26;;;;;;;1.37;1.17;;;11.20;99.90;;;;;;484317;245;28721;-72
2024/04/03 08:22:28;;;;;;;4.83;1.87;;;11.10;99.90;;;;;;484299;245;28209;-74
2024/04/03 08:24:29;;;;;;;5.60;1.63;;;11.10;99.90;;;;;;484326;245;28215;-75
2024/04/03 08:26:30;;;;;;;2.60;1.47;;;11.10;99.90;;;;;;484348;245;28072;-73
2024/04/03 08:28:31;;;;;;;2.00;1.20;;;11.00;99.90;;;;;;484336;245;28342;-75
2024/04/03 08:30:33;;;;;;;7.00;1.50;;;11.10;99.90;;;;;;484340;245;28170;-74
2024/04/03 08:32:34;;;;;;;4.30;1.40;;;11.20;99.90;;;;;;484298;245;28333;-74
2024/04/03 08:34:35;;;;;;;2.90;1.63;;;11.20;99.90;;;;;;484355;245;28610;-74
2024/04/03 08:36:36;;;;;;;3.90;1.70;;;11.20;99.90;;;;;;484354;245;28369;-72
2024/04/03 08:38:39;;;;;;;1.90;1.60;;;;;;;;;;484335;245;28476;-72
2024/04/03 08:40:40;;;;;;;2.60;1.37;;;11.30;99.90;;;;;;484327;245;27326;-74
2024/04/03 08:42:42;;;;;;;3.23;1.77;;;11.40;99.90;;;;;;484365;245;28129;-74
2024/04/03 08:44:43;;;;;;;3.23;1.90;;;11.40;99.90;;;;;;484354;245;28169;-74
2024/04/03 08:46:44;;;;;;;3.30;1.60;;;11.50;99.90;;;;;;484346;245;28422;-74
2024/04/03 08:48:46;;;;;;;1.47;1.20;;;11.60;99.90;;;;;;484343;245;28325;-74
2024/04/03 08:50:46;;;;;;;4.20;1.50;;;11.70;99.90;;;;;;484240;245;28516;-74
2024/04/03 08:52:48;;;;;;;2.50;1.37;;;11.80;99.90;;;;;;484349;245;28752;-74
2024/04/03 08:54:51;;;;;;;2.63;1.50;;;11.90;99.90;;;;;;484341;245;28961;-73
2024/04/03 08:56:50;;;;;;;2.30;1.37;;;12.00;99.90;;;;;;484255;245;28549;-74
2024/04/03 08:58:51;;;;;;;1.40;1.20;;;12.20;99.90;;;;;;484341;245;28688;-74
2024/04/03 09:00:53;;;;;;;2.10;1.50;;;12.20;99.90;;;;;;484350;245;28309;-74
2024/04/03 09:02:54;;;;;;;3.10;1.30;;;12.20;99.90;;;;;;484350;245;28332;-75
2024/04/03 09:04:55;;;;;;;2.83;1.80;;;12.10;99.90;;;;;;484323;245;28338;-73
2024/04/03 09:06:56;;;;;;;3.30;1.63;;;12.00;99.90;;;;;;484316;245;28224;-74
2024/04/03 09:08:58;;;;;;;2.43;1.60;;;12.20;99.90;;;;;;484330;245;29293;-75
2024/04/03 09:11:01;;;;;;;1.83;1.40;;;12.30;99.90;;;;;;484364;245;28521;-74
2024/04/03 09:13:01;;;;;;;2.90;1.20;;;;;;;;;;484220;245;28401;-74
2024/04/03 09:15:03;;;;;;;2.53;2.00;;;12.30;99.90;;;;;;484321;245;26712;-73
2024/04/03 09:17:04;;;;;;;1.77;1.40;;;12.20;99.90;;;;;;484360;245;28278;-76
2024/04/03 09:19:05;;;;;;;4.93;1.83;;;12.00;99.90;;;;;;484331;245;28286;-73
2024/04/03 09:21:06;;;;;;;1.53;1.33;;;12.10;99.90;;;;;;484360;245;28844;-74
2024/04/03 09:23:09;;;;;;;2.83;1.27;;;;;;;;;;484343;245;28185;-71
2024/04/03 09:25:10;;;;;;;3.70;1.53;;;12.10;99.90;;;;;;484355;245;26714;-74
2024/04/03 09:27:11;;;;;;;3.50;1.40;;;12.20;99.90;;;;;;484356;245;28318;-72
2024/04/03 09:29:15;;;;;;;2.33;1.57;;;12.20;99.90;;;;;;484344;245;28266;-73
2024/04/03 09:31:14;;;;;;;1.60;1.50;;;12.10;99.90;;;;;;484181;245;28040;-72
2024/04/03 09:33:16;;;;;;;1.20;1.10;;;12.00;99.90;;;;;;484344;245;28510;-72
2024/04/03 09:35:19;;;;;;;4.53;1.60;;;12.10;99.90;;;;;;484315;245;28547;-72
2024/04/03 09:37:18;;;;;;;2.20;1.70;;;12.10;99.90;;;;;;484171;245;28856;-74
2024/04/03 09:39:19;;;;;;;4.23;1.93;;;12.00;99.90;;;;;;484313;245;29346;-74
2024/04/03 09:41:20;;;;;;;2.00;1.47;;;11.90;99.90;;;;;;484347;245;28732;-73
2024/04/03 09:43:23;;;;;;;2.27;1.97;;;11.70;99.90;;;;;;484353;245;28732;-72
2024/04/03 09:45:23;;;;;;;2.10;1.30;;;11.80;99.90;;;;;;484249;245;29058;-73
2024/04/03 09:47:24;;;;;;;1.93;1.30;;;11.90;99.90;;;;;;484281;242;28117;-74
2024/04/03 09:49:25;;;;;;;4.10;1.73;;;12.00;99.90;;;;;;484292;245;28110;-74
2024/04/03 09:51:26;;;;;;;4.20;1.77;;;12.00;99.90;;;;;;484343;245;28432;-76
2024/04/03 09:53:29;;;;;;;1.83;1.43;;;12.00;99.90;;;;;;484343;245;28020;-74
2024/04/03 09:55:29;;;;;;;1.97;1.33;;;11.90;99.90;;;;;;484249;245;28836;-72
2024/04/03 09:57:30;;;;;;;2.97;1.30;;;11.70;99.90;;;;;;484337;245;28053;-73
2024/04/03 09:59:31;;;;;;;1.90;1.20;;;11.30;99.90;;;;;;484321;245;28620;-74
2024/04/03 10:01:33;;;;;;;2.10;1.53;;;11.30;99.90;;;;;;484330;245;28622;-75
2024/04/03 10:03:38;;;;;;;3.70;1.60;;;11.40;99.90;;;;;;484310;245;28676;-75
2024/04/03 10:05:35;;;;;;;2.07;1.70;;;11.40;99.90;;;;;;484129;245;29429;-74
2024/04/03 10:07:36;;;;;;;2.93;1.40;;;11.40;99.90;;;;;;484318;245;28622;-73
2024/04/03 10:09:38;;;;;;;1.30;1.20;;;11.50;99.90;;;;;;484343;245;28391;-73
2024/04/03 10:11:39;;;;;;;3.57;2.00;;;11.80;99.90;;;;;;484340;245;28540;-74
2024/04/03 10:13:40;;;;;;;3.73;1.70;;;12.00;99.90;;;;;;484315;245;28665;-72
2024/04/03 10:15:41;;;;;;;1.83;1.50;;;11.90;99.90;;;;;;484303;245;28752;-73
2024/04/03 10:17:43;;;;;;;1.80;1.50;;;11.80;99.90;;;;;;484317;245;28417;-74
2024/04/03 10:19:44;;;;;;;1.80;1.50;;;11.80;99.90;;;;;;484365;245;28794;-72
2024/04/03 10:21:45;;;;;;;1.93;1.50;;;11.60;99.90;;;;;;484331;245;28543;-73
2024/04/03 10:23:46;;;;;;;2.07;1.57;;;11.40;99.90;;;;;;484330;245;28548;-74
2024/04/03 10:25:48;;;;;;;1.50;1.40;;;11.20;99.90;;;;;;484314;245;29043;-73
2024/04/03 10:27:49;;;;;;;1.53;1.43;;;11.30;99.90;;;;;;484234;245;28787;-73
2024/04/03 10:29:50;;;;;;;3.20;1.60;;;11.20;99.90;;;;;;484323;245;28590;-73
2024/04/03 10:31:51;;;;;;;2.27;2.07;;;11.00;99.90;;;;;;484312;245;28781;-74
2024/04/03 10:33:53;;;;;;;2.77;1.90;;;10.90;99.90;;;;;;484319;245;28286;-72
2024/04/03 10:35:55;;;;;;;3.60;2.20;;;;;;;;;;484327;245;28399;-73
2024/04/03 10:37:59;;;;;;;1.93;1.50;;;11.20;99.90;;;;;;484346;245;27781;-74
2024/04/03 10:40:01;;;;;;;2.27;1.83;;;11.40;99.90;;;;;;484315;245;28245;-72
2024/04/03 10:42:04;;;;;;;3.43;1.90;;;11.60;99.90;;;;;;484316;245;28355;-72